createdAt,value
2023-02-24T00:05:05.623Z,94670.00
2023-02-24T00:06:05.648Z,94668.00
2023-02-24T00:53:07.310Z,94648.00
2023-02-24T00:57:06.477Z,94644.00
2023-02-24T00:58:06.515Z,94646.00
2023-02-24T00:59:06.513Z,94642.00
2023-02-24T01:00:06.602Z,94642.00
2023-02-24T01:01:06.605Z,94642.00
2023-02-24T01:02:06.647Z,94640.00
2023-02-24T01:03:06.669Z,94642.00
2023-02-24T01:04:06.754Z,94640.00
2023-02-24T01:05:06.764Z,94642.00
2023-02-24T01:06:06.767Z,94638.00
2023-02-24T01:07:06.813Z,94640.00
2023-02-24T01:08:06.858Z,94634.00
2023-02-24T01:09:06.852Z,94634.00
2023-02-24T01:10:06.896Z,94634.00
2023-02-24T01:11:06.942Z,94634.00
2023-02-24T01:12:07.047Z,94630.00
2023-02-24T01:13:07.021Z,94630.00
2023-02-24T01:14:07.023Z,94628.00
2023-02-24T01:15:07.104Z,94627.00
2023-02-24T01:16:07.179Z,94627.00
2023-02-24T01:17:07.157Z,94627.00
2023-02-24T01:18:07.175Z,94625.00
2023-02-24T01:19:07.191Z,94627.00
2023-02-24T01:20:07.235Z,94623.00
2023-02-24T01:21:07.241Z,94623.00
2023-02-24T01:22:07.289Z,94623.00
2023-02-24T01:23:07.309Z,94619.00
2023-02-24T01:24:07.370Z,94621.00
2023-02-24T01:25:07.382Z,94621.00
2023-02-24T01:26:07.431Z,94619.00
2023-02-24T01:27:07.423Z,94619.00
2023-02-24T01:28:07.455Z,94617.00
2023-02-24T01:29:07.469Z,94615.00
2023-02-24T01:30:07.528Z,94615.00
2023-02-24T01:31:07.629Z,94611.00
2023-02-24T01:32:07.782Z,94613.00
2023-02-24T01:33:07.820Z,94611.00
2023-02-24T01:34:07.605Z,94611.00
2023-02-24T01:35:07.641Z,94611.00
2023-02-24T01:36:07.653Z,94613.00
2023-02-24T01:37:07.688Z,94611.00
2023-02-24T01:38:07.727Z,94609.00
2023-02-24T01:39:07.776Z,94607.00
2023-02-24T01:40:07.791Z,94603.00
2023-02-24T01:41:07.841Z,94603.00
2023-02-24T01:42:07.910Z,94599.00
2023-02-24T01:43:07.913Z,94601.00
2023-02-24T01:44:07.929Z,94601.00
2023-02-24T01:45:07.966Z,94599.00
2023-02-24T01:46:07.986Z,94591.00
2023-02-24T01:47:08.012Z,94589.00
2023-02-24T01:48:08.020Z,94589.00
2023-02-24T01:49:08.052Z,94588.00
2023-02-24T01:50:08.104Z,94589.00
2023-02-24T01:51:08.126Z,94589.00
2023-02-24T01:52:08.175Z,94589.00
2023-02-24T01:53:08.196Z,94588.00
2023-02-24T01:54:08.195Z,94589.00
2023-02-24T01:55:08.262Z,94588.00
2023-02-24T01:56:08.258Z,94586.00
2023-02-24T01:57:08.327Z,94584.00
2023-02-24T01:58:08.379Z,94584.00
2023-02-24T01:59:08.362Z,94582.00
2023-02-24T02:00:08.413Z,94582.00
2023-02-24T02:01:08.423Z,94580.00
2023-02-24T02:02:08.640Z,94584.00
2023-02-24T02:03:08.499Z,94584.00
2023-02-24T02:04:08.509Z,94584.00
2023-02-24T02:05:08.525Z,94584.00
2023-02-24T02:06:08.600Z,94586.00
2023-02-24T02:07:08.636Z,94584.00
2023-02-24T02:08:08.641Z,94584.00
2023-02-24T02:09:08.676Z,94582.00
2023-02-24T02:10:08.707Z,94584.00
2023-02-24T02:11:08.736Z,94582.00
2023-02-24T02:12:08.831Z,94580.00
2023-02-24T02:13:08.784Z,94580.00
2023-02-24T02:14:08.815Z,94580.00
2023-02-24T02:15:08.868Z,94580.00
2023-02-24T02:16:08.903Z,94580.00
2023-02-24T02:17:08.910Z,94580.00
2023-02-24T02:18:08.950Z,94578.00
2023-02-24T02:19:09.008Z,94580.00
2023-02-24T02:20:09.014Z,94580.00
2023-02-24T02:21:09.051Z,94580.00
2023-02-24T02:22:09.069Z,94582.00
2023-02-24T02:23:09.108Z,94584.00
2023-02-24T02:24:09.146Z,94582.00
2023-02-24T02:25:09.202Z,94582.00
2023-02-24T02:26:09.187Z,94582.00
2023-02-24T02:27:09.223Z,94582.00
2023-02-24T02:28:09.282Z,94580.00
2023-02-24T02:29:09.321Z,94580.00
2023-02-24T02:30:09.336Z,94578.00
2023-02-24T02:31:09.453Z,94578.00
2023-02-24T02:32:09.493Z,94578.00
2023-02-24T02:33:09.441Z,94578.00
2023-02-24T02:34:09.448Z,94578.00
2023-02-24T02:35:09.526Z,94580.00
2023-02-24T02:36:09.549Z,94576.00
2023-02-24T02:37:09.589Z,94578.00
2023-02-24T02:38:09.633Z,94580.00
2023-02-24T02:39:09.661Z,94578.00
2023-02-24T02:40:09.693Z,94580.00
2023-02-24T02:41:09.712Z,94578.00
2023-02-24T02:42:09.789Z,94580.00
2023-02-24T02:43:09.811Z,94580.00
2023-02-24T02:44:09.831Z,94580.00
2023-02-24T02:45:09.880Z,94582.00
2023-02-24T02:46:10.019Z,94576.00
2023-02-24T02:47:09.965Z,94576.00
2023-02-24T02:48:10.011Z,94576.00
2023-02-24T02:49:10.026Z,94578.00
2023-02-24T02:50:10.071Z,94578.00
2023-02-24T02:51:10.137Z,94580.00
2023-02-24T02:52:10.185Z,94582.00
2023-02-24T02:53:10.186Z,94582.00
2023-02-24T02:54:10.312Z,94584.00
2023-02-24T02:55:10.275Z,94584.00
2023-02-24T02:56:10.310Z,94584.00
2023-02-24T02:57:10.359Z,94584.00
2023-02-24T02:58:10.425Z,94586.00
2023-02-24T02:59:10.457Z,94582.00
2023-02-24T03:00:10.525Z,94582.00
2023-02-24T03:01:10.538Z,94580.00
2023-02-24T03:02:10.593Z,94580.00
2023-02-24T03:03:10.613Z,94580.00
2023-02-24T03:04:10.670Z,94578.00
2023-02-24T03:05:10.722Z,94580.00
2023-02-24T03:06:10.735Z,94576.00
2023-02-24T03:07:10.831Z,94576.00
2023-02-24T03:08:10.840Z,94576.00
2023-02-24T03:09:10.905Z,94578.00
2023-02-24T03:10:10.971Z,94576.00
2023-02-24T03:11:10.989Z,94574.00
2023-02-24T03:12:11.033Z,94572.00
2023-02-24T03:13:11.079Z,94574.00
2023-02-24T03:14:11.143Z,94572.00
2023-02-24T03:15:11.188Z,94574.00
2023-02-24T03:16:11.264Z,94576.00
2023-02-24T03:17:11.311Z,94576.00
2023-02-24T03:18:11.346Z,94574.00
2023-02-24T03:19:11.433Z,94574.00
2023-02-24T03:20:11.433Z,94574.00
2023-02-24T03:21:11.476Z,94574.00
2023-02-24T03:22:11.518Z,94574.00
2023-02-24T03:23:11.603Z,94572.00
2023-02-24T03:24:11.649Z,94572.00
2023-02-24T03:25:11.685Z,94574.00
2023-02-24T03:26:11.737Z,94574.00
2023-02-24T03:27:11.784Z,94576.00
2023-02-24T03:28:11.842Z,94576.00
2023-02-24T03:29:11.865Z,94578.00
2023-02-24T03:30:11.912Z,94580.00
2023-02-24T03:31:11.989Z,94578.00
2023-02-24T03:32:12.112Z,94578.00
2023-02-24T03:33:12.120Z,94576.00
2023-02-24T03:34:12.081Z,94578.00
2023-02-24T03:35:12.144Z,94578.00
2023-02-24T03:36:12.189Z,94572.00
2023-02-24T03:37:12.267Z,94576.00
2023-02-24T03:38:12.313Z,94574.00
2023-02-24T03:39:12.489Z,94570.00
2023-02-24T03:40:12.339Z,94568.00
2023-02-24T03:41:12.434Z,94568.00
2023-02-24T03:42:12.509Z,94572.00
2023-02-24T03:43:14.005Z,94572.00
2023-02-24T03:44:12.509Z,94572.00
2023-02-24T03:45:12.494Z,94572.00
2023-02-24T03:46:12.591Z,94570.00
2023-02-24T03:47:12.485Z,94572.00
2023-02-24T03:48:12.510Z,94570.00
2023-02-24T03:49:12.483Z,94570.00
2023-02-24T03:50:12.455Z,94568.00
2023-02-24T03:51:12.481Z,94568.00
2023-02-24T03:52:12.492Z,94564.00
2023-02-24T03:53:12.438Z,94566.00
2023-02-24T03:54:12.440Z,94564.00
2023-02-24T03:55:12.424Z,94562.00
2023-02-24T03:56:12.444Z,94564.00
2023-02-24T03:57:12.414Z,94562.00
2023-02-24T03:58:12.419Z,94562.00
2023-02-24T03:59:12.415Z,94558.00
2023-02-24T04:00:12.396Z,94558.00
2023-02-24T04:01:12.366Z,94554.00
2023-02-24T04:02:12.403Z,94556.00
2023-02-24T04:03:12.370Z,94554.00
2023-02-24T04:04:12.369Z,94558.00
2023-02-24T04:05:12.379Z,94556.00
2023-02-24T04:06:12.362Z,94556.00
2023-02-24T04:07:12.364Z,94554.00
2023-02-24T04:08:12.314Z,94558.00
2023-02-24T04:09:12.329Z,94560.00
2023-02-24T04:10:12.333Z,94556.00
2023-02-24T04:11:12.298Z,94554.00
2023-02-24T04:12:12.298Z,94554.00
2023-02-24T04:13:12.302Z,94552.00
2023-02-24T04:14:12.260Z,94550.00
2023-02-24T04:15:12.260Z,94548.00
2023-02-24T06:07:36.617Z,94453.00
2023-02-24T06:08:36.578Z,94453.00
2023-02-24T06:09:36.574Z,94453.00
2023-02-24T06:10:36.570Z,94453.00
2023-02-24T06:11:36.593Z,94453.00
2023-02-24T06:12:36.575Z,94453.00
2023-02-24T06:13:36.524Z,94455.00
2023-02-24T06:14:36.583Z,94456.00
2023-02-24T06:15:36.504Z,94456.00
2023-02-24T06:16:36.610Z,94458.00
2023-02-24T06:17:36.541Z,94458.00
2023-02-24T06:18:36.543Z,94458.00
2023-02-24T06:19:36.490Z,94458.00
2023-02-24T06:20:36.472Z,94460.00
2023-02-24T06:21:36.512Z,94460.00
2023-02-24T06:22:36.515Z,94458.00
2023-02-24T06:23:36.455Z,94456.00
2023-02-24T06:24:36.470Z,94458.00
2023-02-24T06:25:36.469Z,94456.00
2023-02-24T06:26:36.486Z,94455.00
2023-02-24T06:33:36.756Z,94455.00
2023-02-24T06:40:37.398Z,94458.00
2023-02-24T06:43:36.786Z,94456.00
2023-02-24T06:45:36.350Z,94462.00
2023-02-24T06:48:36.776Z,94468.00
2023-02-24T06:49:37.382Z,94464.00
2023-02-24T07:41:35.948Z,94433.00
2023-02-24T07:47:35.886Z,94425.00
2023-02-24T07:48:35.863Z,94425.00
2023-02-24T07:49:36.005Z,94415.00
2023-02-24T07:50:35.870Z,94413.00
2023-02-24T07:51:35.863Z,94413.00
2023-02-24T07:52:35.864Z,94411.00
2023-02-24T07:53:35.899Z,94410.00
2023-02-24T07:54:35.889Z,94410.00
2023-02-24T07:55:35.850Z,94411.00
2023-02-24T07:56:35.786Z,94408.00
2023-02-24T07:57:35.855Z,94406.00
2023-02-24T07:58:35.803Z,94406.00
2023-02-24T07:59:35.820Z,94406.00
2023-02-24T08:00:35.777Z,94406.00
2023-02-24T08:01:35.801Z,94408.00
2023-02-24T08:02:35.837Z,94404.00
2023-02-24T08:03:35.779Z,94402.00
2023-02-24T08:04:35.744Z,94404.00
2023-02-24T08:05:35.784Z,94402.00
2023-02-24T08:06:35.760Z,94400.00
2023-02-24T08:07:35.765Z,94398.00
2023-02-24T08:08:35.726Z,94400.00
2023-02-24T08:09:35.805Z,94396.00
2023-02-24T08:10:35.721Z,94390.00
2023-02-24T08:11:35.784Z,94390.00
2023-02-24T08:12:35.727Z,94386.00
2023-02-24T08:13:35.718Z,94382.00
2023-02-24T08:14:35.847Z,94384.00
2023-02-24T08:15:35.745Z,94382.00
2023-02-24T08:16:35.687Z,94382.00
2023-02-24T08:17:35.672Z,94380.00
2023-02-24T08:18:35.668Z,94378.00
2023-02-24T08:29:35.593Z,94368.00
2023-02-24T08:34:35.544Z,94363.00
2023-02-24T08:39:35.830Z,94351.00
2023-02-24T08:41:35.526Z,94351.00
2023-02-24T08:42:35.565Z,94353.00
2023-02-24T08:43:35.595Z,94351.00
2023-02-24T08:45:35.684Z,94343.00
2023-02-24T08:46:35.725Z,94345.00
2023-02-24T08:48:35.812Z,94335.00
2023-02-24T08:49:35.882Z,94329.00
2023-02-24T08:50:35.845Z,94331.00
2023-02-24T08:51:35.857Z,94327.00
2023-02-24T08:52:35.833Z,94329.00
2023-02-24T08:53:35.887Z,94329.00
2023-02-24T08:54:35.840Z,94329.00
2023-02-24T08:55:35.899Z,94327.00
2023-02-24T09:00:36.149Z,94323.00
2023-02-24T09:01:36.200Z,94319.00
2023-02-24T09:04:36.366Z,94317.00
2023-02-24T09:07:36.479Z,94304.00
2023-02-24T09:08:36.539Z,94310.00
2023-02-24T09:09:36.556Z,94304.00
2023-02-24T09:10:38.824Z,94304.00
2023-02-24T09:11:36.613Z,94298.00
2023-02-24T09:12:36.596Z,94298.00
2023-02-24T09:13:36.606Z,94296.00
2023-02-24T09:14:36.787Z,94290.00
2023-02-24T09:15:36.610Z,94286.00
2023-02-24T09:16:36.623Z,94284.00
2023-02-24T09:17:36.556Z,94282.00
2023-02-24T09:18:36.571Z,94278.00
2023-02-24T09:19:36.593Z,94277.00
2023-02-24T09:20:36.553Z,94278.00
2023-02-24T09:21:36.560Z,94269.00
2023-02-24T09:22:36.549Z,94265.00
2023-02-24T09:23:36.523Z,94265.00
2023-02-24T09:24:36.547Z,94269.00
2023-02-24T09:25:36.543Z,94269.00
2023-02-24T09:26:36.524Z,94273.00
2023-02-24T09:27:36.555Z,94273.00
2023-02-24T09:28:36.555Z,94271.00
2023-02-24T09:29:36.488Z,94271.00
2023-02-24T09:30:36.600Z,94269.00
2023-02-24T09:31:37.820Z,94269.00
2023-02-24T09:32:36.567Z,94265.00
2023-02-24T09:33:37.470Z,94261.00
2023-02-24T09:34:36.858Z,94261.00
2023-02-24T09:35:36.489Z,94257.00
2023-02-24T09:36:36.454Z,94253.00
2023-02-24T09:37:36.464Z,94251.00
2023-02-24T09:38:36.414Z,94247.00
2023-02-24T09:39:36.875Z,94251.00
2023-02-24T09:40:36.443Z,94247.00
2023-02-24T09:41:36.405Z,94247.00
2023-02-24T09:42:37.324Z,94241.00
2023-02-24T09:43:36.379Z,94241.00
2023-02-24T09:44:36.393Z,94239.00
2023-02-24T09:45:36.487Z,94235.00
2023-02-24T09:46:36.587Z,94237.00
2023-02-24T09:47:36.381Z,94239.00
2023-02-24T09:48:36.368Z,94235.00
2023-02-24T09:49:36.834Z,94235.00
2023-02-24T09:50:59.629Z,94233.00
2023-02-24T09:51:37.332Z,94231.00
2023-02-24T09:52:36.368Z,94228.00
2023-02-24T09:53:36.333Z,94225.00
2023-02-24T09:54:36.335Z,94222.00
2023-02-24T09:55:36.301Z,94220.00
2023-02-24T09:56:36.310Z,94216.00
2023-02-24T09:57:36.378Z,94210.00
2023-02-24T09:58:43.689Z,94212.00
2023-02-24T09:59:37.311Z,94210.00
2023-02-24T10:00:36.314Z,94208.00
2023-02-24T10:01:36.347Z,94208.00
2023-02-24T10:02:36.401Z,94204.00
2023-02-24T10:03:36.333Z,94206.00
2023-02-24T10:04:36.378Z,94198.00
2023-02-24T10:05:36.246Z,94200.00
2023-02-24T10:06:36.251Z,94198.00
2023-02-24T10:07:36.257Z,94200.00
2023-02-24T10:08:36.215Z,94196.00
2023-02-24T10:09:36.345Z,94198.00
2023-02-24T10:10:36.254Z,94192.00
2023-02-24T10:11:36.183Z,94188.00
2023-02-24T10:12:36.191Z,94192.00
2023-02-24T10:13:36.182Z,94186.00
2023-02-24T10:14:43.030Z,94183.00
2023-02-24T10:15:37.192Z,94183.00
2023-02-24T10:16:36.203Z,94181.00
2023-02-24T10:17:36.141Z,94179.00
2023-02-24T10:18:36.236Z,94173.00
2023-02-24T10:19:36.354Z,94169.00
2023-02-24T10:20:36.158Z,94169.00
2023-02-24T10:21:36.146Z,94171.00
2023-02-24T10:22:36.134Z,94161.00
2023-02-24T10:23:36.121Z,94159.00
2023-02-24T10:24:36.447Z,94159.00
2023-02-24T10:25:36.242Z,94157.00
2023-02-24T10:26:36.143Z,94155.00
2023-02-24T10:27:36.207Z,94151.00
2023-02-24T10:28:36.234Z,94149.00
2023-02-24T10:29:36.096Z,94147.00
2023-02-24T10:30:36.279Z,94136.00
2023-02-24T10:31:36.262Z,94139.00
2023-02-24T10:32:36.124Z,94138.00
2023-02-24T10:33:36.092Z,94136.00
2023-02-24T10:34:36.124Z,94141.00
2023-02-24T10:35:36.364Z,94138.00
2023-02-24T10:36:36.224Z,94139.00
2023-02-24T10:37:36.002Z,94134.00
2023-02-24T10:38:36.032Z,94132.00
2023-02-24T10:39:35.985Z,94134.00
2023-02-24T10:40:36.013Z,94132.00
2023-02-24T10:41:36.027Z,94126.00
2023-02-24T10:42:35.981Z,94126.00
2023-02-24T10:43:36.144Z,94122.00
2023-02-24T10:44:36.123Z,94120.00
2023-02-24T10:45:35.960Z,94116.00
2023-02-24T10:46:41.417Z,94108.00
2023-02-24T10:47:36.949Z,94108.00
2023-02-24T10:48:43.076Z,94106.00
2023-02-24T10:49:36.932Z,94100.00
2023-02-24T10:50:39.361Z,94094.00
2023-02-24T10:51:36.919Z,94085.00
2023-02-24T10:52:35.908Z,94085.00
2023-02-24T10:53:35.944Z,94085.00
2023-02-24T10:54:35.974Z,94079.00
2023-02-24T10:55:35.970Z,94077.00
2023-02-24T10:56:36.003Z,94075.00
2023-02-24T10:57:36.103Z,94077.00
2023-02-24T10:58:36.071Z,94073.00
2023-02-24T10:59:36.190Z,94071.00
2023-02-24T11:00:36.108Z,94067.00
2023-02-24T11:01:36.210Z,94069.00
2023-02-24T11:02:36.202Z,94067.00
2023-02-24T11:03:36.289Z,94069.00
2023-02-24T11:04:36.241Z,94065.00
2023-02-24T11:05:36.233Z,94065.00
2023-02-24T11:06:36.264Z,94067.00
2023-02-24T11:07:36.318Z,94065.00
2023-02-24T11:08:36.498Z,94063.00
2023-02-24T11:09:36.382Z,94061.00
2023-02-24T11:10:36.351Z,94057.00
2023-02-24T11:14:36.446Z,94046.00
2023-02-24T11:15:36.472Z,94046.00
2023-02-24T11:16:36.479Z,94046.00
2023-02-24T11:17:36.479Z,94044.00
2023-02-24T11:18:36.510Z,94048.00
2023-02-24T11:19:36.498Z,94048.00
2023-02-24T11:20:48.342Z,94044.00
2023-02-24T11:21:37.485Z,94040.00
2023-02-24T11:22:36.531Z,94038.00
2023-02-24T11:23:36.465Z,94028.00
2023-02-24T11:24:36.483Z,94024.00
2023-02-24T11:25:36.681Z,94026.00
2023-02-24T11:26:36.543Z,94024.00
2023-02-24T11:27:36.606Z,94032.00
2023-02-24T11:28:36.660Z,94030.00
2023-02-24T11:29:36.672Z,94026.00
2023-02-24T11:30:36.902Z,94024.00
2023-02-24T11:31:36.835Z,94026.00
2023-02-24T11:32:36.953Z,94022.00
2023-02-24T11:33:36.792Z,94018.00
2023-02-24T11:34:36.804Z,94020.00
2023-02-24T11:35:36.941Z,94016.00
2023-02-24T11:36:36.958Z,94016.00
2023-02-24T11:37:36.861Z,94012.00
2023-02-24T11:38:36.893Z,94008.00
2023-02-24T11:39:36.895Z,94003.00
2023-02-24T11:40:36.895Z,94001.00
2023-02-24T11:41:36.912Z,93997.00
2023-02-24T11:42:36.899Z,93991.00
2023-02-24T11:43:36.926Z,93989.00
2023-02-24T11:44:36.901Z,93987.00
2023-02-24T11:46:36.977Z,93983.00
2023-02-24T11:47:36.990Z,93981.00
2023-02-24T11:48:36.928Z,93979.00
2023-02-24T11:49:36.969Z,93977.00
2023-02-24T11:50:36.956Z,93973.00
2023-02-24T11:51:36.976Z,93971.00
2023-02-24T12:08:37.099Z,93930.00
2023-02-24T12:09:37.127Z,93930.00
2023-02-24T12:10:37.417Z,93930.00
2023-02-24T12:11:37.167Z,93924.00
2023-02-24T12:12:37.175Z,93922.00
2023-02-24T12:13:37.191Z,93922.00
2023-02-24T12:14:37.256Z,93922.00
2023-02-24T12:15:37.203Z,93920.00
2023-02-24T12:16:37.268Z,93918.00
2023-02-24T12:17:37.225Z,93920.00
2023-02-24T12:18:37.212Z,93914.00
2023-02-24T12:19:37.237Z,93914.00
2023-02-24T12:21:37.255Z,93916.00
2023-02-24T12:22:37.237Z,93912.00
2023-02-24T12:23:37.282Z,93905.00
2023-02-24T12:24:37.264Z,93912.00
2023-02-24T12:25:37.263Z,93895.00
2023-02-24T12:26:37.260Z,93893.00
2023-02-24T12:27:37.902Z,93897.00
2023-02-24T12:28:37.292Z,93895.00
2023-02-24T12:29:37.287Z,93893.00
2023-02-24T12:30:39.081Z,93887.00
2023-02-24T12:31:37.416Z,93891.00
2023-02-24T12:32:37.748Z,93887.00
2023-02-24T12:33:37.328Z,93883.00
2023-02-24T12:34:37.376Z,93883.00
2023-02-24T12:35:37.428Z,93887.00
2023-02-24T12:36:37.405Z,93885.00
2023-02-24T12:37:37.407Z,93891.00
2023-02-24T12:38:37.393Z,93885.00
2023-02-24T12:39:37.371Z,93875.00
2023-02-24T12:40:37.393Z,93883.00
2023-02-24T12:41:37.544Z,93885.00
2023-02-24T12:42:37.517Z,93877.00
2023-02-24T12:43:37.387Z,93883.00
2023-02-24T12:44:37.408Z,93874.00
2023-02-24T12:45:37.565Z,93875.00
2023-02-24T12:46:37.404Z,93875.00
2023-02-24T12:47:37.427Z,93872.00
2023-02-24T12:48:37.421Z,93866.00
2023-02-24T12:49:37.417Z,93864.00
2023-02-24T12:50:37.545Z,93870.00
2023-02-24T12:51:37.451Z,93866.00
2023-02-24T12:52:37.440Z,93868.00
2023-02-24T12:53:37.462Z,93860.00
2023-02-24T12:54:37.458Z,93860.00
2023-02-24T12:55:37.619Z,93868.00
2023-02-24T12:56:37.469Z,93866.00
2023-02-24T12:57:37.478Z,93854.00
2023-02-24T12:58:37.619Z,93856.00
2023-02-24T12:59:37.510Z,93856.00
2023-02-24T13:00:37.624Z,93854.00
2023-02-24T13:01:37.604Z,93856.00
2023-02-24T13:02:37.577Z,93860.00
2023-02-24T13:03:37.524Z,93858.00
2023-02-24T13:04:37.531Z,93854.00
2023-02-24T13:05:37.549Z,93852.00
2023-02-24T13:06:37.553Z,93848.00
2023-02-24T13:07:37.551Z,93848.00
2023-02-24T13:08:38.428Z,93842.00
2023-02-24T13:09:37.561Z,93842.00
2023-02-24T13:10:37.562Z,93836.00
2023-02-24T13:11:37.534Z,93836.00
2023-02-24T13:12:37.550Z,93830.00
2023-02-24T13:13:37.586Z,93827.00
2023-02-24T13:14:37.533Z,93832.00
2023-02-24T13:15:37.550Z,93825.00
2023-02-24T13:16:37.681Z,93821.00
2023-02-24T13:17:37.562Z,93825.00
2023-02-24T13:18:37.573Z,93823.00
2023-02-24T13:19:37.565Z,93825.00
2023-02-24T13:20:37.577Z,93821.00
2023-02-24T13:21:37.559Z,93823.00
2023-02-24T13:22:37.565Z,93825.00
2023-02-24T13:23:37.593Z,93817.00
2023-02-24T13:24:37.605Z,93813.00
2023-02-24T13:25:37.604Z,93809.00
2023-02-24T13:26:37.564Z,93819.00
2023-02-24T13:27:37.607Z,93821.00
2023-02-24T13:28:37.586Z,93813.00
2023-02-24T13:29:37.607Z,93813.00
2023-02-24T13:30:37.628Z,93813.00
2023-02-24T13:31:37.675Z,93805.00
2023-02-24T13:32:37.779Z,93805.00
2023-02-24T13:33:37.627Z,93803.00
2023-02-24T13:34:37.635Z,93801.00
2023-02-24T13:35:37.637Z,93797.00
2023-02-24T13:36:37.619Z,93801.00
2023-02-24T13:37:37.599Z,93793.00
2023-02-24T13:38:37.638Z,93799.00
2023-02-24T13:39:37.634Z,93793.00
2023-02-24T13:40:37.649Z,93785.00
2023-02-24T13:41:37.679Z,93787.00
2023-02-24T13:42:37.658Z,93789.00
2023-02-24T13:43:37.694Z,93785.00
2023-02-24T13:44:37.673Z,93789.00
2023-02-24T13:45:37.735Z,93787.00
2023-02-24T13:46:37.718Z,93795.00
2023-02-24T13:47:37.659Z,93787.00
2023-02-24T13:48:37.663Z,93785.00
2023-02-24T13:49:37.648Z,93785.00
2023-02-24T13:50:37.676Z,93789.00
2023-02-24T13:51:37.711Z,93785.00
2023-02-24T13:52:37.694Z,93774.00
2023-02-24T13:53:37.692Z,93774.00
2023-02-24T13:54:37.696Z,93774.00
2023-02-24T13:55:37.682Z,93766.00
2023-02-24T13:56:37.728Z,93772.00
2023-02-24T13:57:37.682Z,93772.00
2023-02-24T13:58:37.686Z,93766.00
2023-02-24T13:59:38.435Z,93766.00
2023-02-24T14:00:37.686Z,93768.00
2023-02-24T14:01:37.783Z,93770.00
2023-02-24T14:02:37.746Z,93758.00
2023-02-24T14:03:37.725Z,93762.00
2023-02-24T14:04:37.697Z,93766.00
2023-02-24T14:05:37.681Z,93766.00
2023-02-24T14:06:37.900Z,93756.00
2023-02-24T14:07:37.732Z,93754.00
2023-02-24T14:08:37.678Z,93760.00
2023-02-24T14:09:37.673Z,93760.00
2023-02-24T14:10:37.648Z,93760.00
2023-02-24T14:11:37.660Z,93756.00
2023-02-24T14:12:37.636Z,93758.00
2023-02-24T14:13:37.675Z,93752.00
2023-02-24T14:14:37.666Z,93748.00
2023-02-24T14:15:37.688Z,93756.00
2023-02-24T14:16:37.649Z,93750.00
2023-02-24T14:17:37.618Z,93746.00
2023-02-24T14:18:37.639Z,93752.00
2023-02-24T14:19:37.633Z,93748.00
2023-02-24T14:20:37.669Z,93744.00
2023-02-24T14:21:37.653Z,93746.00
2023-02-24T14:22:37.635Z,93736.00
2023-02-24T14:23:37.654Z,93742.00
2023-02-24T14:24:37.669Z,93734.00
2023-02-24T14:25:37.636Z,93740.00
2023-02-24T14:26:37.624Z,93734.00
2023-02-24T14:27:37.624Z,93733.00
2023-02-24T14:28:37.585Z,93736.00
2023-02-24T14:29:43.818Z,93733.00
2023-02-24T14:30:38.617Z,93727.00
2023-02-24T14:31:37.781Z,93729.00
2023-02-24T14:32:37.631Z,93731.00
2023-02-24T14:33:37.543Z,93725.00
2023-02-24T14:34:37.582Z,93723.00
2023-02-24T14:35:37.573Z,93721.00
2023-02-24T14:36:37.962Z,93725.00
2023-02-24T14:37:37.562Z,93721.00
2023-02-24T14:38:37.569Z,93723.00
2023-02-24T14:39:37.556Z,93717.00
2023-02-24T14:40:37.501Z,93721.00
2023-02-24T14:41:37.549Z,93715.00
2023-02-24T14:42:37.535Z,93717.00
2023-02-24T14:43:37.498Z,93709.00
2023-02-24T14:44:37.496Z,93703.00
2023-02-24T14:45:37.507Z,93703.00
2023-02-24T14:46:37.506Z,93713.00
2023-02-24T14:47:37.458Z,93703.00
2023-02-24T14:48:37.487Z,93699.00
2023-02-24T14:49:37.484Z,93701.00
2023-02-24T14:50:37.497Z,93699.00
2023-02-24T14:51:37.469Z,93707.00
2023-02-24T14:52:37.451Z,93701.00
2023-02-24T14:53:37.437Z,93703.00
2023-02-24T14:54:37.446Z,93703.00
2023-02-24T14:55:37.483Z,93697.00
2023-02-24T14:56:37.430Z,93697.00
2023-02-24T14:57:37.416Z,93699.00
2023-02-24T14:58:37.399Z,93695.00
2023-02-24T14:59:37.380Z,93697.00
2023-02-24T15:00:37.395Z,93699.00
2023-02-24T15:01:37.418Z,93694.00
2023-02-24T15:02:37.389Z,93695.00
2023-02-24T15:03:37.439Z,93690.00
2023-02-24T15:04:37.385Z,93694.00
2023-02-24T15:05:37.383Z,93690.00
2023-02-24T15:06:37.337Z,93692.00
2023-02-24T15:07:37.350Z,93690.00
2023-02-24T15:08:37.328Z,93680.00
2023-02-24T15:09:37.321Z,93678.00
2023-02-24T15:10:37.328Z,93680.00
2023-02-24T15:11:37.339Z,93680.00
2023-02-24T15:12:37.327Z,93684.00
2023-02-24T15:13:37.286Z,93684.00
2023-02-24T15:14:37.296Z,93680.00
2023-02-24T15:15:37.379Z,93678.00
2023-02-24T15:16:37.370Z,93678.00
2023-02-24T15:17:37.307Z,93680.00
2023-02-24T15:18:37.261Z,93682.00
2023-02-24T15:19:37.248Z,93670.00
2023-02-24T15:20:37.256Z,93668.00
2023-02-24T15:21:37.267Z,93662.00
2023-02-24T15:22:37.299Z,93666.00
2023-02-24T15:23:37.298Z,93666.00
2023-02-24T15:24:37.307Z,93664.00
2023-02-24T15:25:42.852Z,93668.00
2023-02-24T15:26:38.289Z,93664.00
2023-02-24T15:27:37.280Z,93662.00
2023-02-24T15:28:37.249Z,93662.00
2023-02-24T15:29:37.267Z,93664.00
2023-02-24T15:30:37.302Z,93649.00
2023-02-24T15:31:37.431Z,93656.00
2023-02-24T15:32:37.399Z,93662.00
2023-02-24T15:33:37.232Z,93666.00
2023-02-24T15:34:37.230Z,93656.00
2023-02-24T15:35:37.236Z,93662.00
2023-02-24T15:36:37.229Z,93658.00
2023-02-24T15:37:37.210Z,93666.00
2023-02-24T15:38:37.205Z,93658.00
2023-02-24T15:39:37.160Z,93649.00
2023-02-24T15:40:37.183Z,93656.00
2023-02-24T15:41:37.171Z,93647.00
2023-02-24T15:42:37.143Z,93658.00
2023-02-24T15:43:37.182Z,93656.00
2023-02-24T15:44:37.139Z,93647.00
2023-02-24T15:45:37.120Z,93647.00
2023-02-24T15:46:37.177Z,93643.00
2023-02-24T15:47:37.132Z,93666.00
2023-02-24T15:48:37.108Z,93660.00
2023-02-24T15:49:37.090Z,93649.00
2023-02-24T15:50:37.069Z,93656.00
2023-02-24T15:51:37.133Z,93647.00
2023-02-24T15:52:37.076Z,93645.00
2023-02-24T15:53:37.085Z,93647.00
2023-02-24T15:54:37.090Z,93643.00
2023-02-24T15:55:37.066Z,93643.00
2023-02-24T15:56:37.074Z,93649.00
2023-02-24T15:57:37.065Z,93656.00
2023-02-24T15:58:37.057Z,93639.00
2023-02-24T15:59:37.085Z,93633.00
2023-02-24T16:00:37.117Z,93631.00
2023-02-24T16:01:37.112Z,93631.00
2023-02-24T16:02:37.112Z,93631.00
2023-02-24T16:03:37.147Z,93635.00
2023-02-24T16:04:37.127Z,93633.00
2023-02-24T16:05:37.119Z,93625.00
2023-02-24T16:06:37.144Z,93631.00
2023-02-24T16:07:37.186Z,93627.00
2023-02-24T16:08:37.193Z,93623.00
2023-02-24T16:09:37.203Z,93629.00
2023-02-24T16:10:37.198Z,93623.00
2023-02-24T16:11:37.205Z,93631.00
2023-02-24T16:12:37.206Z,93621.00
2023-02-24T16:13:37.231Z,93619.00
2023-02-24T16:14:37.242Z,93623.00
2023-02-24T16:15:37.258Z,93623.00
2023-02-24T16:16:37.380Z,93623.00
2023-02-24T16:17:37.312Z,93621.00
2023-02-24T16:18:37.268Z,93625.00
2023-02-24T16:19:37.348Z,93619.00
2023-02-24T16:20:37.314Z,93617.00
2023-02-24T16:21:37.307Z,93610.00
2023-02-24T16:22:37.361Z,93623.00
2023-02-24T16:23:37.340Z,93611.00
2023-02-24T16:24:37.379Z,93613.00
2023-02-24T16:25:37.384Z,93613.00
2023-02-24T16:26:37.398Z,93610.00
2023-02-24T16:27:37.423Z,93610.00
2023-02-24T16:28:37.402Z,93608.00
2023-02-24T16:29:37.486Z,93613.00
2023-02-24T16:30:37.548Z,93613.00
2023-02-24T16:31:37.769Z,93610.00
2023-02-24T16:32:37.539Z,93617.00